createdAt,value
2018-07-13T00:00:01.140Z,99.90
2018-07-13T00:02:29.503Z,99.90
2018-07-13T00:04:57.921Z,99.90
2018-07-13T00:07:26.335Z,99.90
2018-07-13T00:09:54.897Z,99.90
2018-07-13T00:12:23.323Z,99.90
2018-07-13T00:15:10.881Z,99.90
2018-07-13T00:17:39.406Z,99.90
2018-07-13T00:20:07.942Z,99.90
2018-07-13T00:25:04.833Z,99.90
2018-07-13T00:27:33.432Z,99.90
2018-07-13T00:30:01.852Z,99.90
2018-07-13T00:32:30.259Z,99.90
2018-07-13T00:34:58.823Z,99.90
2018-07-13T00:37:27.243Z,99.90
2018-07-13T00:39:55.632Z,99.90
2018-07-13T00:42:24.378Z,99.90
2018-07-13T00:44:52.770Z,99.90
2018-07-13T00:47:21.162Z,99.90
2018-07-13T00:52:17.659Z,99.90
2018-07-13T00:54:46.048Z,99.90
2018-07-13T00:57:14.495Z,99.90
2018-07-13T00:59:42.895Z,99.90
2018-07-13T01:02:11.464Z,99.90
2018-07-13T01:04:39.842Z,99.90
2018-07-13T01:07:08.264Z,99.90
2018-07-13T01:09:36.678Z,99.90
2018-07-13T01:12:05.103Z,99.90
2018-07-13T01:14:33.488Z,99.90
2018-07-13T01:17:02.070Z,99.90
2018-07-13T01:19:30.479Z,99.90
2018-07-13T01:21:58.870Z,99.90
2018-07-13T01:24:27.451Z,99.90
2018-07-13T01:26:55.840Z,99.90
2018-07-13T01:29:24.238Z,99.90
2018-07-13T01:31:52.635Z,99.90
2018-07-13T01:34:21.017Z,99.90
2018-07-13T01:36:49.430Z,99.90
2018-07-13T01:39:17.857Z,99.90
2018-07-13T01:41:46.243Z,99.90
2018-07-13T01:44:14.648Z,99.90
2018-07-13T01:46:43.037Z,99.90
2018-07-13T01:49:11.583Z,99.90
2018-07-13T01:51:39.978Z,99.90
2018-07-13T01:54:08.373Z,99.90
2018-07-13T01:56:36.726Z,99.90
2018-07-13T01:59:05.350Z,99.90
2018-07-13T02:01:33.661Z,99.90
2018-07-13T02:04:01.986Z,99.90
2018-07-13T02:06:30.386Z,99.90
2018-07-13T02:08:58.673Z,99.90
2018-07-13T02:11:27.002Z,99.90
2018-07-13T02:13:55.369Z,99.90
2018-07-13T02:16:23.713Z,99.90
2018-07-13T02:18:52.042Z,99.90
2018-07-13T02:21:20.526Z,99.90
2018-07-13T02:23:48.846Z,99.90
2018-07-13T02:26:17.192Z,99.90
2018-07-13T02:28:45.545Z,99.90
2018-07-13T02:31:13.892Z,99.90
2018-07-13T02:33:42.270Z,99.90
2018-07-13T02:36:10.587Z,99.90
2018-07-13T02:38:38.913Z,99.90
2018-07-13T02:41:07.293Z,99.90
2018-07-13T02:43:35.784Z,99.90
2018-07-13T02:46:04.134Z,99.90
2018-07-13T02:48:32.453Z,99.90
2018-07-13T02:51:00.818Z,99.90
2018-07-13T02:53:29.174Z,99.90
2018-07-13T02:55:57.567Z,99.90
2018-07-13T02:58:26.094Z,99.90
2018-07-13T03:00:54.558Z,99.90
2018-07-13T03:03:22.910Z,99.90
2018-07-13T03:05:51.250Z,99.90
2018-07-13T03:08:19.588Z,99.90
2018-07-13T03:10:47.925Z,99.90
2018-07-13T03:13:16.253Z,99.90
2018-07-13T03:15:44.614Z,99.90
2018-07-13T03:18:12.939Z,99.90
2018-07-13T03:20:41.290Z,99.90
2018-07-13T03:23:09.694Z,99.90
2018-07-13T03:25:38.093Z,99.90
2018-07-13T03:28:06.446Z,99.90
2018-07-13T03:30:34.814Z,99.90
2018-07-13T03:33:03.148Z,99.90
2018-07-13T03:35:31.462Z,99.90
2018-07-13T03:37:59.958Z,99.90
2018-07-13T03:40:28.286Z,99.90
2018-07-13T03:42:56.637Z,99.90
2018-07-13T03:45:24.974Z,99.90
2018-07-13T03:47:53.296Z,99.90
2018-07-13T03:50:21.625Z,99.90
2018-07-13T03:52:50.110Z,99.90
2018-07-13T03:55:18.432Z,99.90
2018-07-13T03:57:46.778Z,99.90
2018-07-13T04:00:15.121Z,99.90
2018-07-13T04:02:43.445Z,99.90
2018-07-13T04:05:11.794Z,99.90
2018-07-13T04:07:40.116Z,99.90
2018-07-13T04:10:08.448Z,99.90
2018-07-13T04:12:36.798Z,99.90
2018-07-13T04:15:05.182Z,99.90
2018-07-13T04:17:33.633Z,99.90
2018-07-13T04:20:02.145Z,99.90
2018-07-13T04:22:30.568Z,99.90
2018-07-13T04:24:58.949Z,99.90
2018-07-13T04:27:27.579Z,99.90
2018-07-13T04:32:23.998Z,99.90
2018-07-13T04:34:52.772Z,99.90
2018-07-13T04:37:21.117Z,99.90
2018-07-13T04:39:49.446Z,99.90
2018-07-13T04:42:17.861Z,99.90
2018-07-13T04:44:46.173Z,99.90
2018-07-13T04:47:14.528Z,99.90
2018-07-13T04:49:43.069Z,99.90
2018-07-13T04:52:11.461Z,99.90
2018-07-13T04:54:39.856Z,99.90
2018-07-13T04:57:08.260Z,99.90
2018-07-13T04:59:36.702Z,99.90
2018-07-13T05:02:05.154Z,99.90
2018-07-13T05:04:33.605Z,99.90
2018-07-13T05:07:02.039Z,99.90
2018-07-13T05:09:30.635Z,99.90
2018-07-13T05:11:59.081Z,99.90
2018-07-13T05:14:27.454Z,99.90
2018-07-13T05:16:56.019Z,99.90
2018-07-13T05:19:24.382Z,99.90
2018-07-13T05:21:52.898Z,99.90
2018-07-13T05:24:21.352Z,99.90
2018-07-13T05:26:49.790Z,99.90
2018-07-13T05:29:18.253Z,99.90
2018-07-13T05:31:46.683Z,99.90
2018-07-13T05:34:15.117Z,99.90
2018-07-13T05:36:43.591Z,99.90
2018-07-13T05:39:12.709Z,99.90
2018-07-13T05:41:41.909Z,99.90
2018-07-13T05:44:10.317Z,99.90
2018-07-13T05:46:38.958Z,99.90
2018-07-13T05:49:07.406Z,99.90
2018-07-13T05:51:35.885Z,99.90
2018-07-13T05:54:04.745Z,99.90
2018-07-13T05:56:33.348Z,99.90
2018-07-13T05:59:01.757Z,99.90
2018-07-13T06:01:30.154Z,99.90
2018-07-13T06:03:58.690Z,99.90
2018-07-13T06:06:27.106Z,99.90
2018-07-13T06:08:55.541Z,99.90
2018-07-13T06:11:23.991Z,99.90
2018-07-13T06:13:53.459Z,99.90
2018-07-13T06:16:21.839Z,99.90
2018-07-13T06:18:50.185Z,99.90
2018-07-13T06:21:18.550Z,99.90
2018-07-13T06:23:46.909Z,99.90
2018-07-13T06:26:15.253Z,99.90
2018-07-13T06:28:43.645Z,99.90
2018-07-13T06:31:11.983Z,99.90
2018-07-13T06:33:40.363Z,99.90
2018-07-13T06:36:08.816Z,99.90
2018-07-13T06:38:37.214Z,99.90
2018-07-13T06:41:05.626Z,99.90
2018-07-13T06:43:34.006Z,99.90
2018-07-13T06:46:02.405Z,99.90
2018-07-13T06:48:30.997Z,99.90
2018-07-13T06:50:59.387Z,99.90
2018-07-13T06:53:27.747Z,99.90
2018-07-13T06:55:56.135Z,99.90
2018-07-13T06:58:35.710Z,99.90
2018-07-13T07:01:08.823Z,99.90
2018-07-13T07:03:45.258Z,99.90
2018-07-13T07:06:15.383Z,99.90
2018-07-13T07:08:48.125Z,99.90
2018-07-13T07:11:17.451Z,99.90
2018-07-13T07:13:46.829Z,99.90
2018-07-13T07:16:15.167Z,99.90
2018-07-13T07:18:43.637Z,99.90
2018-07-13T07:21:12.066Z,99.90
2018-07-13T07:23:40.473Z,99.90
2018-07-13T07:26:09.025Z,99.90
2018-07-13T07:28:37.376Z,99.90
2018-07-13T07:31:05.774Z,99.90
2018-07-13T07:33:34.148Z,99.90
2018-07-13T07:36:02.479Z,99.90
2018-07-13T07:38:30.842Z,99.90
2018-07-13T07:40:59.222Z,99.90
2018-07-13T07:43:27.613Z,99.90
2018-07-13T07:45:55.962Z,99.90
2018-07-13T07:48:24.269Z,99.90
2018-07-13T07:50:52.607Z,99.90
2018-07-13T07:53:20.945Z,99.90
2018-07-13T07:55:49.277Z,99.90
2018-07-13T07:58:17.677Z,99.90
2018-07-13T08:00:46.081Z,99.90
2018-07-13T08:03:14.485Z,99.90
2018-07-13T08:05:42.841Z,99.90
2018-07-13T08:08:11.394Z,99.90
2018-07-13T08:10:39.786Z,99.90
2018-07-13T08:13:08.142Z,99.90
2018-07-13T08:15:36.580Z,99.90
2018-07-13T08:18:04.973Z,99.60
2018-07-13T08:20:36.131Z,99.20
2018-07-13T08:23:07.418Z,97.90
2018-07-13T08:25:36.393Z,97.40
2018-07-13T08:28:05.083Z,97.20
2018-07-13T08:30:35.909Z,96.60
2018-07-13T08:33:04.329Z,96.60
2018-07-13T08:35:32.730Z,96.80
2018-07-13T08:38:01.138Z,96.60
2018-07-13T08:40:29.590Z,96.60
2018-07-13T08:42:57.998Z,96.60
2018-07-13T08:45:26.411Z,96.30
2018-07-13T08:47:54.822Z,96.00
2018-07-13T08:50:23.259Z,96.00
2018-07-13T08:52:52.270Z,96.10
2018-07-13T08:55:20.710Z,95.90
2018-07-13T08:57:49.937Z,95.40
2018-07-13T09:00:18.366Z,94.90
2018-07-13T09:02:46.766Z,94.90
2018-07-13T09:05:15.215Z,94.80
2018-07-13T09:07:43.605Z,94.80
2018-07-13T09:12:40.862Z,94.90
2018-07-13T09:15:10.366Z,94.90
2018-07-13T09:17:38.790Z,95.60
2018-07-13T09:20:09.057Z,95.80
2018-07-13T09:22:37.610Z,95.30
2018-07-13T09:25:06.399Z,94.90
2018-07-13T09:27:34.798Z,95.20
2018-07-13T09:30:03.223Z,94.40
2018-07-13T09:34:59.692Z,94.90
2018-07-13T09:37:28.205Z,95.20
2018-07-13T09:39:56.595Z,95.50
2018-07-13T09:42:25.010Z,96.00
2018-07-13T09:44:53.418Z,95.50
2018-07-13T09:47:21.906Z,95.50
2018-07-13T09:49:50.341Z,95.50
2018-07-13T09:52:18.822Z,95.40
2018-07-13T09:54:47.242Z,95.70
2018-07-13T09:57:15.625Z,95.80
2018-07-13T09:59:43.997Z,95.00
2018-07-13T10:02:12.566Z,94.50
2018-07-13T10:04:40.975Z,94.70
2018-07-13T10:07:09.405Z,94.20
2018-07-13T10:09:37.862Z,94.60
2018-07-13T10:12:06.290Z,94.20
2018-07-13T10:14:34.907Z,92.50
2018-07-13T10:17:03.387Z,92.40
2018-07-13T10:19:31.774Z,91.70
2018-07-13T10:22:00.277Z,92.70
2018-07-13T10:26:57.253Z,91.40
2018-07-13T10:29:30.283Z,90.90
2018-07-13T10:31:58.890Z,90.20
2018-07-13T10:34:27.274Z,89.20
2018-07-13T10:37:00.151Z,86.90
2018-07-13T10:39:28.561Z,87.70
2018-07-13T10:41:58.082Z,86.50
2018-07-13T10:44:26.529Z,86.80
2018-07-13T10:46:54.938Z,86.50
2018-07-13T10:49:23.334Z,84.20
2018-07-13T10:51:52.133Z,84.10
2018-07-13T10:54:20.666Z,86.30
2018-07-13T10:56:49.035Z,86.30
2018-07-13T10:59:17.529Z,85.10
2018-07-13T11:01:45.987Z,83.10
2018-07-13T11:04:14.835Z,82.00
2018-07-13T11:06:44.157Z,82.80
2018-07-13T11:09:12.549Z,82.20
2018-07-13T11:11:40.943Z,80.10
2018-07-13T11:14:09.650Z,80.40
2018-07-13T11:16:38.193Z,79.20
2018-07-13T11:19:06.550Z,77.30
2018-07-13T11:21:34.915Z,77.60
2018-07-13T11:24:03.353Z,77.90
2018-07-13T11:26:31.666Z,80.20
2018-07-13T11:29:00.046Z,81.40
2018-07-13T11:31:28.417Z,82.50
2018-07-13T11:33:56.974Z,82.90
2018-07-13T11:36:25.334Z,82.30
2018-07-13T11:38:53.670Z,82.10
2018-07-13T11:41:22.038Z,80.30
2018-07-13T11:43:50.430Z,82.30
2018-07-13T11:46:18.766Z,82.80
2018-07-13T11:48:47.160Z,82.30
2018-07-13T11:51:15.510Z,83.80
2018-07-13T11:53:43.881Z,83.80
2018-07-13T11:56:12.246Z,84.50
2018-07-13T11:58:40.601Z,83.40
2018-07-13T12:01:09.018Z,84.10
2018-07-13T12:03:37.361Z,81.50
2018-07-13T12:06:05.734Z,82.50
2018-07-13T12:08:34.065Z,82.40
2018-07-13T12:11:02.438Z,84.10
2018-07-13T12:13:30.774Z,84.10
2018-07-13T12:15:59.118Z,82.60
2018-07-13T12:18:27.491Z,82.60
2018-07-13T12:20:56.065Z,83.10
2018-07-13T12:23:24.387Z,83.40
2018-07-13T12:25:52.770Z,82.50
2018-07-13T12:28:21.259Z,82.80
2018-07-13T12:30:49.590Z,83.40
2018-07-13T12:33:17.947Z,82.80
2018-07-13T12:35:46.302Z,82.80
2018-07-13T12:38:14.636Z,82.30
2018-07-13T12:40:42.981Z,83.70
2018-07-13T12:43:11.395Z,83.20
2018-07-13T12:48:07.805Z,84.10
2018-07-13T12:50:36.370Z,84.70
2018-07-13T12:53:04.722Z,84.70
2018-07-13T12:55:33.038Z,85.00
2018-07-13T12:58:01.471Z,85.90
2018-07-13T13:00:29.831Z,85.30
2018-07-13T13:02:58.302Z,86.50
2018-07-13T13:05:26.693Z,86.30
2018-07-13T13:07:54.978Z,87.00
2018-07-13T13:10:23.326Z,87.60
2018-07-13T13:12:51.661Z,87.30
2018-07-13T13:15:20.072Z,87.90
2018-07-13T13:17:48.463Z,87.90
2018-07-13T13:20:16.809Z,87.70
2018-07-13T13:22:45.341Z,86.90
2018-07-13T13:25:13.715Z,87.60
2018-07-13T13:27:42.044Z,87.40
2018-07-13T13:30:10.607Z,88.10
2018-07-13T13:32:38.918Z,87.90
2018-07-13T13:35:07.234Z,86.80
2018-07-13T13:37:35.765Z,85.70
2018-07-13T13:40:04.153Z,85.70
2018-07-13T13:42:32.481Z,86.40
2018-07-13T13:45:00.962Z,86.90
2018-07-13T13:47:29.330Z,88.70
2018-07-13T13:49:57.662Z,89.10
2018-07-13T13:52:26.002Z,89.20
2018-07-13T13:54:54.351Z,89.40
2018-07-13T13:57:22.718Z,90.10
2018-07-13T13:59:51.168Z,90.00
2018-07-13T14:02:19.727Z,89.60
2018-07-13T14:04:48.066Z,90.00
2018-07-13T14:07:16.417Z,89.40
2018-07-13T14:09:44.885Z,88.40
2018-07-13T14:12:13.485Z,88.70
2018-07-13T14:14:41.800Z,88.10
2018-07-13T14:17:10.126Z,88.20
2018-07-13T14:19:38.465Z,86.70
2018-07-13T14:22:06.837Z,87.30
2018-07-13T14:24:35.370Z,86.70
2018-07-13T14:27:03.749Z,86.80
2018-07-13T14:29:32.111Z,87.50
2018-07-13T14:32:00.667Z,87.10
2018-07-13T14:34:29.069Z,87.00
2018-07-13T14:36:57.378Z,86.30
2018-07-13T14:39:25.813Z,86.40
2018-07-13T14:41:54.182Z,87.00
2018-07-13T14:44:22.592Z,86.20
2018-07-13T14:46:51.214Z,86.50
2018-07-13T14:49:19.550Z,88.00
2018-07-13T14:51:47.936Z,86.60
2018-07-13T14:54:16.734Z,86.70
2018-07-13T14:56:45.138Z,87.60
2018-07-13T14:59:13.673Z,88.20
2018-07-13T15:01:42.129Z,89.60
2018-07-13T15:04:10.554Z,89.90
2018-07-13T15:06:38.977Z,90.00
2018-07-13T15:09:07.756Z,90.00
2018-07-13T15:11:36.186Z,89.90
2018-07-13T15:14:04.626Z,90.10
2018-07-13T15:16:32.998Z,89.60
2018-07-13T15:19:01.385Z,89.80
2018-07-13T15:21:29.805Z,90.10
2018-07-13T15:23:58.173Z,90.00
2018-07-13T15:26:26.510Z,90.00
2018-07-13T15:28:56.148Z,90.00
2018-07-13T15:31:24.478Z,90.10
2018-07-13T15:33:52.833Z,91.10
2018-07-13T15:38:49.420Z,93.70
2018-07-13T15:41:17.788Z,93.10
2018-07-13T15:46:14.371Z,94.60
2018-07-13T15:48:42.785Z,96.10
2018-07-13T15:51:11.202Z,95.80
2018-07-13T15:53:39.597Z,95.80
2018-07-13T15:56:07.993Z,96.40
2018-07-13T15:58:36.388Z,97.40
2018-07-13T16:01:04.741Z,97.00
2018-07-13T16:03:33.326Z,96.40
2018-07-13T16:06:01.647Z,95.40
2018-07-13T16:08:29.993Z,94.70
2018-07-13T16:10:58.342Z,94.20
2018-07-13T16:13:26.653Z,92.50
2018-07-13T16:15:55.153Z,91.90
2018-07-13T16:18:23.481Z,91.40
2018-07-13T16:20:51.808Z,90.70
2018-07-13T16:23:20.313Z,90.80
2018-07-13T16:25:48.638Z,90.50
2018-07-13T16:28:17.027Z,90.70
2018-07-13T16:30:45.473Z,90.90
2018-07-13T16:33:13.793Z,90.50
2018-07-13T16:35:42.133Z,91.10
2018-07-13T16:38:10.661Z,90.70
2018-07-13T16:40:39.050Z,90.50
2018-07-13T16:43:07.426Z,90.00
2018-07-13T16:45:35.846Z,90.00
2018-07-13T16:48:04.263Z,89.70
2018-07-13T16:50:32.671Z,89.90
2018-07-13T16:53:00.967Z,89.70
2018-07-13T16:55:29.322Z,89.70
2018-07-13T16:57:57.834Z,89.20
2018-07-13T17:00:26.174Z,89.50
2018-07-13T17:02:54.519Z,89.40
2018-07-13T17:05:22.901Z,88.70
2018-07-13T17:07:51.250Z,86.90
2018-07-13T17:10:19.602Z,86.00
2018-07-13T17:12:48.153Z,85.20
2018-07-13T17:15:16.494Z,85.60
2018-07-13T17:17:44.898Z,85.70
2018-07-13T17:20:13.361Z,85.90
2018-07-13T17:22:41.664Z,86.50
2018-07-13T17:25:10.257Z,87.10
2018-07-13T17:27:38.613Z,86.80
2018-07-13T17:30:08.329Z,87.50
2018-07-13T17:32:36.710Z,87.20
2018-07-13T17:35:05.251Z,87.30
2018-07-13T17:37:33.585Z,87.20
2018-07-13T17:40:02.240Z,88.40
2018-07-13T17:42:30.620Z,87.10
2018-07-13T17:44:58.980Z,87.20
2018-07-13T17:47:27.572Z,87.10
2018-07-13T17:49:55.969Z,87.00
2018-07-13T17:52:24.376Z,87.60
2018-07-13T17:54:52.732Z,87.60
2018-07-13T17:57:21.109Z,87.70
2018-07-13T17:59:49.701Z,87.50
2018-07-13T18:02:18.022Z,87.20
2018-07-13T18:04:46.342Z,87.00
2018-07-13T18:07:14.674Z,87.50
2018-07-13T18:09:42.991Z,87.60
2018-07-13T18:12:11.370Z,87.90
2018-07-13T18:14:39.698Z,87.90
2018-07-13T18:17:08.039Z,88.10
2018-07-13T18:19:36.457Z,88.40
2018-07-13T18:22:04.851Z,89.00
2018-07-13T18:24:33.178Z,89.00
2018-07-13T18:27:01.522Z,89.20
2018-07-13T18:29:29.846Z,88.90
2018-07-13T18:31:58.418Z,88.70
2018-07-13T18:34:26.770Z,88.60
2018-07-13T18:36:55.106Z,89.10
2018-07-13T18:39:23.462Z,89.10
2018-07-13T18:41:51.840Z,89.20
2018-07-13T18:44:20.256Z,89.60
2018-07-13T18:46:48.578Z,89.70
2018-07-13T18:49:16.885Z,89.70
2018-07-13T18:51:45.229Z,90.00
2018-07-13T18:54:13.578Z,90.40
2018-07-13T18:56:41.949Z,90.10
2018-07-13T18:59:10.293Z,90.20
2018-07-13T19:01:38.705Z,90.30
2018-07-13T19:04:07.030Z,90.10
2018-07-13T19:06:35.362Z,90.40
2018-07-13T19:09:03.946Z,90.80
2018-07-13T19:11:32.296Z,90.70
2018-07-13T19:14:00.619Z,90.70
2018-07-13T19:16:28.986Z,90.90
2018-07-13T19:18:57.437Z,90.90
2018-07-13T19:21:25.778Z,91.00
2018-07-13T19:23:54.258Z,91.10
2018-07-13T19:26:22.585Z,91.40
2018-07-13T19:28:50.889Z,91.60
2018-07-13T19:31:19.221Z,91.30
2018-07-13T19:33:47.539Z,91.30
2018-07-13T19:36:16.003Z,91.70
2018-07-13T19:38:44.206Z,92.10
2018-07-13T19:41:12.513Z,92.20
2018-07-13T19:43:41.051Z,92.30
2018-07-13T19:46:09.438Z,92.40
2018-07-13T19:48:37.760Z,92.50
2018-07-13T19:51:06.305Z,92.60
2018-07-13T19:53:34.681Z,92.80
2018-07-13T19:56:03.010Z,92.90
2018-07-13T19:58:31.345Z,93.00
2018-07-13T20:00:59.673Z,93.30
2018-07-13T20:03:28.037Z,93.50
2018-07-13T20:05:56.370Z,93.60
2018-07-13T20:08:25.577Z,93.70
2018-07-13T20:10:53.928Z,93.70
2018-07-13T20:13:22.294Z,93.80
2018-07-13T20:15:50.662Z,93.90
2018-07-13T20:18:19.002Z,93.90
2018-07-13T20:20:47.354Z,93.90
2018-07-13T20:23:15.681Z,93.90
2018-07-13T20:25:44.026Z,94.00
2018-07-13T20:28:12.373Z,94.20
2018-07-13T20:30:40.725Z,94.40
2018-07-13T20:33:09.057Z,94.50
2018-07-13T20:35:37.422Z,94.50
2018-07-13T20:38:06.100Z,94.60
2018-07-13T20:40:34.446Z,94.70
2018-07-13T20:43:02.771Z,94.70
2018-07-13T20:45:31.109Z,94.80
2018-07-13T20:47:59.425Z,95.00
2018-07-13T20:50:27.754Z,95.10
2018-07-13T20:52:56.242Z,95.20
2018-07-13T20:55:24.585Z,95.10
2018-07-13T20:57:52.913Z,95.20
2018-07-13T21:00:21.315Z,95.10
2018-07-13T21:02:49.781Z,95.00
2018-07-13T21:05:18.265Z,95.20
2018-07-13T21:07:46.588Z,95.00
2018-07-13T21:10:14.940Z,95.20
2018-07-13T21:12:43.473Z,95.20
2018-07-13T21:15:11.817Z,95.10
2018-07-13T21:17:40.133Z,95.10
2018-07-13T21:20:08.520Z,95.00
2018-07-13T21:22:36.813Z,95.00
2018-07-13T21:25:05.190Z,95.10
2018-07-13T21:27:33.606Z,95.40
2018-07-13T21:30:01.921Z,95.40
2018-07-13T21:32:30.318Z,95.50
2018-07-13T21:34:58.635Z,95.50
2018-07-13T21:37:26.957Z,95.40
2018-07-13T21:39:55.290Z,95.50
2018-07-13T21:42:23.608Z,95.50
2018-07-13T21:44:51.915Z,95.50
2018-07-13T21:49:48.580Z,95.70
2018-07-13T21:52:16.970Z,95.80
2018-07-13T21:54:45.334Z,95.80
2018-07-13T21:57:13.663Z,95.70
2018-07-13T21:59:42.007Z,95.80
2018-07-13T22:02:10.363Z,96.00
2018-07-13T22:04:38.898Z,96.10
2018-07-13T22:07:07.275Z,96.10
2018-07-13T22:09:35.612Z,96.10
2018-07-13T22:12:04.010Z,96.10
2018-07-13T22:14:32.342Z,96.00
2018-07-13T22:17:00.684Z,96.20
2018-07-13T22:19:29.036Z,96.40
2018-07-13T22:21:57.504Z,96.70
2018-07-13T22:24:25.834Z,96.60
2018-07-13T22:26:54.174Z,96.60
2018-07-13T22:29:22.489Z,96.60
2018-07-13T22:31:50.841Z,96.60
2018-07-13T22:34:19.206Z,96.70
2018-07-13T22:36:47.537Z,96.90
2018-07-13T22:39:15.888Z,96.90
2018-07-13T22:41:44.378Z,96.80
2018-07-13T22:44:12.710Z,96.90
2018-07-13T22:46:41.067Z,96.90
2018-07-13T22:49:09.406Z,96.90
2018-07-13T22:51:37.726Z,97.10
2018-07-13T22:54:06.753Z,97.10
2018-07-13T22:56:35.066Z,97.00
2018-07-13T22:59:03.441Z,97.00
2018-07-13T23:01:31.778Z,96.80
2018-07-13T23:04:00.110Z,96.70
2018-07-13T23:06:28.494Z,96.70
2018-07-13T23:08:56.825Z,96.80
2018-07-13T23:11:25.162Z,96.80
2018-07-13T23:13:53.514Z,96.80
2018-07-13T23:16:21.838Z,96.60
2018-07-13T23:18:50.149Z,96.60
2018-07-13T23:21:18.474Z,96.50
2018-07-13T23:23:46.960Z,96.40
2018-07-13T23:26:15.227Z,96.30
2018-07-13T23:28:43.662Z,96.30
2018-07-13T23:31:11.994Z,96.50
2018-07-13T23:33:40.313Z,96.70
2018-07-13T23:36:08.670Z,96.60
2018-07-13T23:38:37.029Z,96.50
2018-07-13T23:41:05.382Z,96.40
2018-07-13T23:43:33.748Z,96.40
2018-07-13T23:46:02.098Z,96.40
2018-07-13T23:48:30.431Z,96.50
2018-07-13T23:50:58.929Z,96.50
2018-07-13T23:53:27.270Z,96.50
2018-07-13T23:55:55.624Z,96.70
2018-07-13T23:58:23.990Z,96.90
